Sunday, December 17, 2017, 2:39 PM EST
Back to Local

KIJD, Willimantic Windham Airport

Location: North Windham, CT, United States Lat: 41.75
Local Time: 2:39 PM EST (19:39 GMT) Lon: -72.183
Time Zone: US/Eastern Elev: 246 ft

Show me the last for .
Show Decoded

2017-12-17 13:52 METAR KIJD 171852Z AUTO 29006KT 10SM CLR M02/M13 A3024 RMK AO2 SLP243 T10171133
                 =
2017-12-17 12:52 METAR KIJD 171752Z AUTO 36004KT 10SM CLR M02/M14 A3025 RMK AO2 SLP246 T10171139
                 11017 21144 58015 =
2017-12-17 11:52 METAR KIJD 171652Z AUTO 34007KT 10SM CLR M02/M14 A3026 RMK AO2 SLP251 T10171139
                 =
2017-12-17 10:52 METAR KIJD 171552Z AUTO 33013G17KT 10SM CLR M02/M12 A3029 RMK AO2 SLP259
                 T10221122 =
2017-12-17 09:52 METAR KIJD 171452Z AUTO VRB03KT 10SM CLR M04/M12 A3029 RMK AO2 SLP261 T10441117
                 53002 =
2017-12-17 08:52 METAR KIJD 171352Z AUTO 05003KT 10SM CLR M10/M13 A3029 RMK AO2 SLP259 T11001133
                 =
2017-12-17 07:52 METAR KIJD 171252Z AUTO 00000KT 10SM CLR M13/M16 A3029 RMK AO2 SLP261 T11331156
                 =
2017-12-17 06:52 METAR KIJD 171152Z AUTO 00000KT 10SM CLR M13/M16 A3029 RMK AO2 SLP260 I1000
                 I6000 T11331161 11050 21139 51013 =
2017-12-17 05:52 METAR KIJD 171052Z AUTO 00000KT 10SM CLR M13/M15 A3028 RMK AO2 SLP257 I1000
                 T11281150 =
2017-12-17 04:52 METAR KIJD 170952Z AUTO 00000KT 10SM CLR M12/M15 A3027 RMK AO2 SLP254 I1000
                 T11221150 =
2017-12-17 03:52 METAR KIJD 170852Z AUTO 05004KT 10SM CLR M11/M13 A3025 RMK AO2 SLP245 T11061128
                 51017 =
2017-12-17 02:52 METAR KIJD 170752Z AUTO 00000KT 10SM CLR M10/M13 A3024 RMK AO2 SLP244 T11001128
                 =
2017-12-17 01:52 METAR KIJD 170652Z AUTO 26004KT 10SM CLR M08/M12 A3022 RMK AO2 SLP238 T10781122
                 =
2017-12-17 00:52 METAR KIJD 170552Z AUTO VRB03KT 10SM CLR M05/M11 A3020 RMK AO2 SLP228 T10501111
                 11006 21050 51008 =
2017-12-16 23:52 METAR KIJD 170452Z AUTO 29004KT 10SM CLR M04/M11 A3019 RMK AO2 SLP227 T10391106
                 400111139 =
2017-12-16 22:52 METAR KIJD 170352Z AUTO VRB06KT 10SM CLR M03/M11 A3019 RMK AO2 SLP225 T10331106
                 =
2017-12-16 21:52 METAR KIJD 170252Z AUTO 29007KT 10SM CLR M02/M11 A3017 RMK AO2 SLP220 T10221111
                 51029 =
2017-12-16 20:52 METAR KIJD 170152Z AUTO 32010KT 10SM CLR M02/M09 A3014 RMK AO2 SLP210 T10171094
                 =
2017-12-16 19:52 METAR KIJD 170052Z AUTO 34006KT 10SM BKN055 OVC065 M01/M07 A3012 RMK AO2 SLP203
                 T10111072 =
2017-12-16 18:52 METAR KIJD 162352Z AUTO 32005KT 10SM BKN044 OVC060 M01/M07 A3009 RMK AO2 SNE2256
                 SLP190 P0000 60000 T10061072 10011 21006 53042 =
2017-12-16 17:52 METAR KIJD 162252Z AUTO 32009KT 7SM -SN OVC030 M01/M06 A3005 RMK AO2 SNB27
                 SLP179 P0000 T10061056 =
2017-12-16 16:52 METAR KIJD 162152Z AUTO 28003KT 10SM BKN042 OVC050 01/M06 A2999 RMK AO2 SLP159
                 T00111061 =
2017-12-16 15:52 METAR KIJD 162052Z AUTO 27007KT 10SM FEW042 OVC090 01/M07 A2996 RMK AO2 SLP148
                 T00111067 53010 =
2017-12-16 14:52 METAR KIJD 161952Z AUTO 26007KT 10SM OVC090 01/M07 A2994 RMK AO2 SLP141
                 T00111072 =

Support USWX by starting your Amazon purchase here.